EDT,Max TemperatureF,Mean TemperatureF,Min TemperatureF,Max Dew PointF,MeanDew PointF,Min DewpointF,Max Humidity, Mean Humidity, Min Humidity, Max Sea Level PressureIn, Mean Sea Level PressureIn, Min Sea Level PressureIn, Max VisibilityMiles, Mean VisibilityMiles, Min VisibilityMiles, Max Wind SpeedMPH, Mean Wind SpeedMPH, Max Gust SpeedMPH,PrecipitationIn, CloudCover, Events, WindDirDegrees
2013-3-1,37,34,32,34,32,30,100,92,81,30.04,30.01,29.97,10,6,2,13,6,,0.02,8,Snow,297
2013-3-2,32,30,28,32,24,20,100,78,69,30.14,30.08,30.02,10,10,4,12,8,17,0.01,8,Snow,342
2013-3-3,37,31,25,23,21,14,86,74,42,30.15,30.12,30.08,10,10,4,12,6,,0.00,6,Snow,297
2013-3-4,43,32,21,25,20,14,83,58,44,30.16,30.06,29.92,10,10,7,14,4,,0.00,6,,106
2013-3-5,47,38,29,47,35,25,100,88,51,29.90,29.80,29.61,10,5,0,23,8,40,0.40,8,Fog-Rain-Snow,109
2013-3-6,32,30,29,29,27,26,93,86,80,30.32,30.11,29.85,10,8,4,18,13,33,0.00,8,Snow,296
2013-3-7,36,32,29,29,27,25,93,84,70,30.41,30.36,30.30,10,10,9,7,4,,0.00,8,,314
2013-3-8,48,38,29,28,26,24,83,64,40,30.45,30.40,30.34,10,10,10,10,4,17,0.00,2,,53
2013-3-9,58,45,32,34,31,26,82,55,35,30.32,30.18,30.04,10,10,10,10,6,,0.00,5,,123
2013-3-10,68,59,50,48,37,32,88,48,30,30.03,29.89,29.80,10,10,10,22,11,33,0.05,6,Rain,154
2013-3-11,55,46,37,54,47,31,100,90,73,29.94,29.77,29.70,10,7,1,22,9,32,1.13,8,Rain,199
2013-3-12,48,41,34,30,28,24,81,67,47,30.12,30.02,29.94,10,10,10,15,10,22,0.00,6,,262
2013-3-13,36,32,25,31,22,16,86,68,47,30.41,30.20,30.09,10,7,1,28,12,33,0.00,7,Snow,282
2013-3-14,46,32,19,32,22,15,93,68,33,30.42,30.32,30.23,10,8,2,10,4,16,0.00,4,Snow,223
2013-3-15,66,49,32,45,36,29,89,66,40,30.21,29.98,29.78,10,10,10,10,6,17,0.00,2,,196
2013-3-16,71,56,44,49,45,39,82,62,46,29.98,29.80,29.68,10,10,10,20,13,29,0.00,5,Rain,260
2013-3-17,42,40,35,39,37,34,100,92,81,30.08,29.99,29.88,10,6,2,17,9,23,0.76,8,Rain,36
2013-3-18,52,44,35,52,40,33,100,96,80,29.91,29.76,29.65,10,7,2,22,12,26,1.19,8,Rain-Thunderstorm,339
2013-3-19,47,40,31,34,22,14,90,56,26,30.18,30.09,29.92,10,10,10,23,10,26,0.00,0,,260
2013-3-20,44,33,22,22,17,10,82,55,37,30.17,30.10,30.05,10,10,10,18,8,30,0.00,2,,268
2013-3-21,34,25,16,16,11,9,75,56,37,30.09,30.05,30.01,10,10,10,14,5,22,0.00,2,Snow,288
2013-3-22,39,28,18,21,15,12,83,53,33,30.10,30.06,30.03,10,10,10,8,1,,0.00,5,,126
2013-3-23,55,46,36,29,22,17,60,43,28,30.04,29.97,29.82,10,10,10,13,4,,0.00,5,,62
2013-3-24,45,40,34,39,34,24,100,86,43,29.80,29.55,29.39,10,6,2,18,10,25,0.60,8,Fog-Rain-Snow-Thunderstorm,53
2013-3-25,34,32,30,31,29,28,94,90,78,30.05,29.68,29.52,10,5,0,22,15,30,0.02,8,Snow,260
2013-3-26,40,35,31,31,29,25,93,83,57,30.31,30.14,30.05,10,9,3,13,9,17,0.00,8,Snow,281
2013-3-27,44,34,24,27,24,21,89,65,40,30.38,30.34,30.31,10,10,10,10,6,16,0.00,3,,283
2013-3-28,51,36,22,27,23,20,91,60,32,30.40,30.34,30.30,10,10,10,6,1,,0.00,0,,343
2013-3-29,52,42,31,42,36,24,100,83,58,30.33,30.27,30.22,10,6,0,10,3,,0.00,3,Fog,171
2013-3-30,60,44,28,49,35,28,100,92,41,30.25,30.19,29.95,10,3,0,14,1,,0.00,2,Fog-Rain,129
2013-3-31,61,54,45,50,47,41,100,92,52,29.92,29.86,29.82,10,6,2,14,4,,0.06,7,Rain,271